Time;durP1;ratioP1;P1;durP2;ratioP2;P2;SDS_P1;SDS_P2;PMS_P1;PMS_P2;Temp;Humidity;BMP_temperature;BMP_pressure;BME280_temperature;BME280_humidity;BME280_pressure;Samples;Min_cycle;Max_cycle;Signal;HPM_P1;HPM_P2
2022/12/22 03:28:08;;;;;;;3.20;1.42;;;;;;;5.34;100.00;99796.19;5027350;28;20048;-55
2022/12/22 03:30:34;;;;;;;8.25;2.60;;;;;;;5.35;100.00;99804.91;5026186;28;20138;-57
2022/12/22 03:33:00;;;;;;;4.63;1.80;;;;;;;5.31;100.00;99803.59;5027986;28;20487;-55
2022/12/22 03:35:25;;;;;;;2.72;1.17;;;;;;;5.27;100.00;99800.53;5022744;28;20045;-57
2022/12/22 03:37:51;;;;;;;20.83;3.50;;;;;;;5.23;100.00;99797.41;5026348;28;20044;-54
2022/12/22 03:40:16;;;;;;;5.18;1.42;;;;;;;5.23;100.00;99804.47;5030074;28;20040;-57
2022/12/22 03:48:09;;;;;;;13.18;2.38;;;;;;;5.20;100.00;99796.94;5028371;28;20059;-52
2022/12/22 03:50:34;;;;;;;3.67;1.48;;;;;;;5.18;100.00;99807.59;5028234;28;20025;-50
2022/12/22 03:53:00;;;;;;;3.08;1.65;;;;;;;5.14;100.00;99805.53;5030744;28;20041;-54
2022/12/22 03:55:25;;;;;;;2.05;1.20;;;;;;;5.13;100.00;99809.13;5024346;28;20038;-57
2022/12/22 03:57:51;;;;;;;2.20;1.23;;;;;;;5.08;100.00;99811.44;5023178;28;20093;-57
2022/12/22 04:00:17;;;;;;;2.40;1.30;;;;;;;5.02;100.00;99800.63;5029259;28;20109;-57
2022/12/22 04:02:42;;;;;;;1.45;0.65;;;;;;;4.98;100.00;99790.63;5025699;28;20120;-57
2022/12/22 04:05:08;;;;;;;4.22;1.08;;;;;;;4.94;100.00;99802.50;5024682;28;20073;-56
2022/12/22 04:07:33;;;;;;;5.80;1.17;;;;;;;4.92;100.00;99801.84;5031148;28;20104;-54
2022/12/22 04:12:55;;;;;;;1.33;0.52;;;;;;;4.87;100.00;99788.38;5025271;28;20053;-57
2022/12/22 04:15:28;;;;;;;8.35;1.63;;;;;;;4.89;100.00;99791.66;5022928;28;20044;-57
2022/12/22 04:17:54;;;;;;;2.03;0.45;;;;;;;4.91;100.00;99789.69;5022645;28;20117;-55
2022/12/22 04:20:21;;;;;;;2.15;1.02;;;;;;;4.89;100.00;99795.13;5027687;28;20025;-57
2022/12/22 04:22:47;;;;;;;1.00;0.75;;;;;;;4.91;100.00;99801.03;5022744;28;20029;-55
2022/12/22 04:25:12;;;;;;;4.00;0.63;;;;;;;4.90;100.00;99802.00;5027107;28;20068;-54
2022/12/22 04:27:38;;;;;;;4.07;0.93;;;;;;;4.92;100.00;99809.72;5029154;28;20072;-57
2022/12/22 04:30:10;;;;;;;4.13;1.15;;;;;;;4.95;100.00;99807.56;5026064;28;20495;-55
2022/12/22 04:32:35;;;;;;;3.58;0.82;;;;;;;4.99;100.00;99814.13;5024694;28;20033;-58
2022/12/22 04:35:00;;;;;;;1.80;1.02;;;;;;;5.00;100.00;99831.50;5021835;28;20035;-59
2022/12/22 04:37:26;;;;;;;3.83;0.85;;;;;;;4.97;100.00;99831.03;5026571;28;20034;-56
2022/12/22 04:39:51;;;;;;;14.68;2.67;;;;;;;4.95;100.00;99820.69;5028544;28;20026;-59
2022/12/22 04:42:16;;;;;;;1.55;0.77;;;;;;;4.91;100.00;99813.34;5021281;28;20034;-59
2022/12/22 04:44:42;;;;;;;5.90;1.50;;;;;;;4.91;100.00;99795.75;5024383;28;20029;-55
2022/12/22 04:47:07;;;;;;;4.32;1.10;;;;;;;4.92;100.00;99815.78;5027468;28;20045;-55
2022/12/22 04:49:32;;;;;;;5.25;0.75;;;;;;;4.93;100.00;99813.97;5028297;28;20029;-56
2022/12/22 04:51:58;;;;;;;4.28;0.95;;;;;;;4.94;100.00;99813.81;5030620;28;20037;-54
2022/12/22 04:54:24;;;;;;;5.15;0.43;;;;;;;4.95;100.00;99815.44;5027871;28;20033;-52
2022/12/22 04:56:50;;;;;;;0.68;0.60;;;;;;;4.99;100.00;99819.38;5029895;28;20052;-55
2022/12/22 04:59:15;;;;;;;2.10;0.75;;;;;;;5.04;100.00;99810.97;5020743;28;20038;-55
2022/12/22 05:01:40;;;;;;;6.07;1.23;;;;;;;5.01;100.00;99817.41;5023635;28;20061;-56
2022/12/22 05:04:06;;;;;;;8.52;1.02;;;;;;;5.01;100.00;99816.59;5026420;28;20057;-57
2022/12/22 05:06:31;;;;;;;7.45;2.22;;;;;;;5.00;100.00;99807.03;5028351;28;20037;-56
2022/12/22 05:08:56;;;;;;;2.83;1.67;;;;;;;5.02;100.00;99810.31;5025931;28;20029;-56
2022/12/22 05:11:22;;;;;;;2.13;0.80;;;;;;;5.05;100.00;99801.28;5025892;28;20134;-59
2022/12/22 05:13:47;;;;;;;1.85;0.68;;;;;;;5.07;100.00;99804.56;5027135;28;20053;-58
2022/12/22 05:16:15;;;;;;;4.05;0.88;;;;;;;5.07;100.00;99810.63;5030754;28;20033;-56
2022/12/22 05:18:42;;;;;;;4.80;0.80;;;;;;;5.10;100.00;99819.97;5020947;28;20029;-59
2022/12/22 05:21:19;;;;;;;7.18;1.58;;;;;;;5.15;100.00;99823.72;5027725;28;20029;-57
2022/12/22 05:23:45;;;;;;;6.05;1.10;;;;;;;5.12;100.00;99812.75;5027308;28;20030;-57
2022/12/22 05:26:13;;;;;;;10.10;1.92;;;;;;;5.12;100.00;99804.88;5026931;28;20033;-58
2022/12/22 05:28:40;;;;;;;5.55;0.82;;;;;;;5.12;100.00;99802.25;5025368;28;20387;-59
2022/12/22 05:31:09;;;;;;;3.13;0.77;;;;;;;5.12;100.00;99810.94;5018752;28;20037;-55
2022/12/22 05:33:35;;;;;;;8.90;1.00;;;;;;;5.17;100.00;99826.19;5024301;28;20033;-60
2022/12/22 05:36:00;;;;;;;14.35;2.22;;;;;;;5.14;100.00;99823.91;5017594;28;20157;-58
2022/12/22 05:38:26;;;;;;;14.10;1.90;;;;;;;5.18;100.00;99825.19;5017585;28;20124;-58
2022/12/22 05:40:51;;;;;;;11.52;2.15;;;;;;;5.19;100.00;99824.22;5020421;28;20032;-54
2022/12/22 05:43:17;;;;;;;17.73;4.25;;;;;;;5.19;100.00;99824.22;5024546;28;20021;-58
2022/12/22 05:45:46;;;;;;;13.98;3.30;;;;;;;5.15;100.00;99810.59;5023195;28;20029;-55
2022/12/22 05:48:12;;;;;;;2.63;1.67;;;;;;;5.23;100.00;99814.97;5025805;28;20531;-57
2022/12/22 05:50:38;;;;;;;14.15;2.00;;;;;;;5.25;100.00;99819.06;5025188;28;20062;-57
2022/12/22 05:53:05;;;;;;;8.98;1.75;;;;;;;5.21;100.00;99823.06;5025328;28;20022;-56
2022/12/22 05:55:31;;;;;;;9.63;2.40;;;;;;;5.21;100.00;99819.59;5021114;28;20112;-59
2022/12/22 05:58:00;;;;;;;24.85;4.82;;;;;;;5.20;100.00;99820.59;5018424;28;20128;-58
2022/12/22 06:00:27;;;;;;;39.28;3.75;;;;;;;5.24;100.00;99827.97;5023619;28;20033;-59
2022/12/22 06:02:52;;;;;;;24.50;4.28;;;;;;;5.23;100.00;99836.00;5022902;28;20052;-57
2022/12/22 06:05:18;;;;;;;14.88;2.40;;;;;;;5.22;100.00;99837.00;5032378;28;20462;-57
2022/12/22 06:07:43;;;;;;;4.50;1.20;;;;;;;5.24;100.00;99846.38;5023271;28;20079;-58
2022/12/22 06:10:10;;;;;;;16.30;3.42;;;;;;;5.27;100.00;99845.19;5016186;28;20022;-55
2022/12/22 06:12:35;;;;;;;6.32;2.08;;;;;;;5.28;100.00;99838.94;5028401;28;20037;-59
2022/12/22 06:15:00;;;;;;;9.15;3.53;;;;;;;5.30;100.00;99836.16;5021473;28;20368;-56
2022/12/22 06:17:26;;;;;;;16.35;3.83;;;;;;;5.29;100.00;99835.31;5026961;28;20056;-58
2022/12/22 06:19:51;;;;;;;10.35;2.38;;;;;;;5.32;100.00;99837.63;5026900;28;20021;-55
2022/12/22 06:22:16;;;;;;;17.90;3.80;;;;;;;5.29;100.00;99832.69;5025521;28;20119;-56
2022/12/22 06:24:42;;;;;;;12.52;2.13;;;;;;;5.29;100.00;99837.94;5022566;28;20029;-56
2022/12/22 06:27:07;;;;;;;3.22;1.42;;;;;;;5.29;100.00;99843.19;5018824;28;20092;-57
2022/12/22 06:29:33;;;;;;;10.95;2.53;;;;;;;5.25;100.00;99842.75;5021975;28;20060;-57
2022/12/22 06:31:58;;;;;;;9.95;2.90;;;;;;;5.21;100.00;99843.25;5022229;28;20125;-59
2022/12/22 06:34:24;;;;;;;10.30;2.35;;;;;;;5.20;100.00;99836.38;5028233;28;20033;-57
2022/12/22 06:36:49;;;;;;;9.55;1.20;;;;;;;5.26;100.00;99840.91;5028284;28;20021;-60
2022/12/22 06:39:15;;;;;;;2.28;0.73;;;;;;;5.31;100.00;99837.78;5028544;28;20111;-59
2022/12/22 06:44:26;;;;;;;3.40;1.40;;;;;;;5.14;100.00;99823.91;5027155;28;20079;-59
2022/12/22 06:46:52;;;;;;;2.95;0.93;;;;;;;5.14;100.00;99822.09;5024687;28;20026;-55
2022/12/22 06:49:17;;;;;;;4.78;0.65;;;;;;;5.12;100.00;99815.38;5023976;28;20112;-56
2022/12/22 06:51:42;;;;;;;7.20;0.60;;;;;;;5.13;100.00;99819.63;5024751;28;20052;-50
2022/12/22 06:54:08;;;;;;;3.83;1.58;;;;;;;5.12;100.00;99808.31;5023412;28;20022;-53
2022/12/22 06:56:33;;;;;;;14.70;2.33;;;;;;;5.16;100.00;99808.78;5024583;28;20030;-56
2022/12/22 06:58:59;;;;;;;4.35;0.55;;;;;;;5.18;100.00;99799.72;5026928;28;20057;-56
2022/12/22 07:01:24;;;;;;;9.18;1.13;;;;;;;5.22;100.00;99808.09;5030551;28;20030;-57
2022/12/22 07:03:49;;;;;;;5.30;0.95;;;;;;;5.22;100.00;99810.72;5015554;28;20057;-55
2022/12/22 07:06:17;;;;;;;1.10;0.85;;;;;;;5.26;100.00;99804.13;5022466;28;20025;-55
2022/12/22 07:08:43;;;;;;;1.45;0.43;;;;;;;5.23;100.00;99799.22;5021877;28;20051;-55
2022/12/22 07:11:08;;;;;;;1.65;0.95;;;;;;;5.21;100.00;99802.03;5021165;28;20026;-56
2022/12/22 07:13:34;;;;;;;3.78;1.10;;;;;;;5.26;100.00;99798.88;5020956;28;20036;-57
2022/12/22 07:16:01;;;;;;;6.63;1.52;;;;;;;5.25;100.00;99803.31;5024684;28;20029;-55
2022/12/22 07:18:29;;;;;;;4.95;1.77;;;;;;;5.32;100.00;99810.50;5026772;28;20043;-55
2022/12/22 07:20:55;;;;;;;0.95;0.90;;;;;;;5.18;100.00;99812.88;5019286;28;20056;-53
2022/12/22 07:23:20;;;;;;;10.73;1.02;;;;;;;5.12;100.00;99815.38;5023955;28;20065;-55
2022/12/22 07:25:46;;;;;;;4.82;0.90;;;;;;;5.19;100.00;99818.97;5026174;28;20159;-58
2022/12/22 07:28:11;;;;;;;1.98;0.82;;;;;;;5.16;100.00;99825.38;5030613;28;20028;-58
2022/12/22 07:30:36;;;;;;;7.57;1.23;;;;;;;5.17;100.00;99836.72;5029915;28;20029;-56
2022/12/22 07:33:02;;;;;;;12.68;2.83;;;;;;;5.22;100.00;99829.13;5017653;28;20376;-58
2022/12/22 07:35:28;;;;;;;1.90;0.80;;;;;;;5.28;100.00;99838.13;5019633;28;20037;-58
2022/12/22 07:37:54;;;;;;;4.45;1.42;;;;;;;5.38;100.00;99830.84;5024691;28;20370;-59
2022/12/22 07:40:19;;;;;;;6.90;1.50;;;;;;;5.31;100.00;99835.97;5026332;28;20463;-56
2022/12/22 07:42:44;;;;;;;6.15;1.10;;;;;;;5.29;100.00;99835.31;5019805;28;20057;-57
2022/12/22 07:45:16;;;;;;;1.10;0.85;;;;;;;5.32;100.00;99832.38;5017837;28;20041;-56
2022/12/22 07:47:41;;;;;;;5.22;1.88;;;;;;;5.28;100.00;99825.00;5020059;28;20045;-53
2022/12/22 07:50:31;;;;;;;5.57;1.40;;;;;;;5.30;100.00;99815.94;5025607;28;20315;-54
2022/12/22 07:53:01;;;;;;;12.20;1.95;;;;;;;5.29;100.00;99816.09;5027692;28;20029;-56
2022/12/22 07:55:29;;;;;;;8.10;2.25;;;;;;;5.35;100.00;99812.78;5026521;28;20033;-57
2022/12/22 07:57:54;;;;;;;25.38;3.38;;;;;;;5.35;100.00;99810.97;5026577;28;20030;-58
2022/12/22 08:00:22;;;;;;;11.45;1.63;;;;;;;5.41;100.00;99805.00;5029916;28;20356;-56
2022/12/22 08:02:52;;;;;;;7.68;2.08;;;;;;;5.43;100.00;99797.78;5028224;28;20092;-58
2022/12/22 08:05:20;;;;;;;15.68;2.40;;;;;;;5.42;100.00;99785.63;5022178;28;20088;-54
2022/12/22 08:07:47;;;;;;;19.55;3.72;;;;;;;5.39;100.00;99787.78;5012894;28;20053;-57
2022/12/22 08:10:13;;;;;;;7.40;0.95;;;;;;;5.40;100.00;99782.34;5022904;28;20128;-57
2022/12/22 08:12:38;;;;;;;5.18;1.05;;;;;;;5.43;100.00;99784.63;5020959;28;20100;-55
2022/12/22 08:15:06;;;;;;;4.72;1.60;;;;;;;5.49;100.00;99777.03;5016838;28;20038;-54
2022/12/22 08:17:31;;;;;;;5.30;1.77;;;;;;;5.47;100.00;99778.03;5019416;28;20239;-58
2022/12/22 08:19:57;;;;;;;12.10;1.98;;;;;;;5.51;100.00;99775.06;5022302;28;20415;-58
2022/12/22 08:22:23;;;;;;;14.07;2.25;;;;;;;5.51;100.00;99780.31;5017361;28;20180;-56
2022/12/22 08:24:53;;;;;;;21.92;3.63;;;;;;;5.54;100.00;99769.44;5017135;28;20087;-58
2022/12/22 08:27:25;;;;;;;16.13;2.42;;;;;;;5.55;100.00;99784.22;5021974;28;20056;-58
2022/12/22 08:29:54;;;;;;;3.05;1.38;;;;;;;5.55;100.00;99776.31;5021385;28;20431;-56
2022/12/22 08:32:19;;;;;;;2.70;0.85;;;;;;;5.54;100.00;99780.78;5018715;28;20025;-55
2022/12/22 08:34:49;;;;;;;9.68;1.55;;;;;;;5.57;100.00;99788.31;5015922;28;20390;-56
2022/12/22 08:37:17;;;;;;;5.32;1.80;;;;;;;5.61;100.00;99781.72;5025843;28;20026;-58
2022/12/22 08:39:48;;;;;;;1.17;0.80;;;;;;;5.65;100.00;99784.81;5016664;28;20014;-57
2022/12/22 08:42:16;;;;;;;1.55;1.05;;;;;;;5.69;100.00;99775.56;5019860;28;20061;-54
2022/12/22 08:44:41;;;;;;;1.77;1.00;;;;;;;5.72;100.00;99782.31;5023478;28;20100;-53
2022/12/22 08:47:07;;;;;;;1.10;0.63;;;;;;;5.72;100.00;99771.78;5023137;28;20291;-56
2022/12/22 08:49:32;;;;;;;0.98;0.85;;;;;;;5.73;100.00;99768.97;5028798;28;20026;-57
2022/12/22 08:51:58;;;;;;;1.65;0.77;;;;;;;5.74;100.00;99765.34;5023286;28;20067;-56
2022/12/22 08:54:23;;;;;;;0.65;0.65;;;;;;;5.77;100.00;99767.63;5021194;28;20033;-55
2022/12/22 08:56:49;;;;;;;0.65;0.25;;;;;;;5.82;100.00;99762.66;5024165;28;20037;-58
2022/12/22 08:59:15;;;;;;;0.73;0.55;;;;;;;5.82;100.00;99760.00;5019199;28;20477;-58
2022/12/22 09:01:43;;;;;;;0.82;0.50;;;;;;;5.86;100.00;99763.09;5024776;28;20296;-58
2022/12/22 09:04:10;;;;;;;1.05;0.68;;;;;;;5.85;100.00;99769.38;5018072;28;20064;-54
2022/12/22 09:06:36;;;;;;;1.00;0.75;;;;;;;5.87;100.00;99765.56;5017794;28;20052;-56
2022/12/22 09:09:05;;;;;;;0.52;0.30;;;;;;;5.88;100.00;99772.44;5013408;28;20080;-55
2022/12/22 09:11:31;;;;;;;2.70;0.95;;;;;;;5.92;100.00;99772.13;5021562;28;20032;-56
2022/12/22 09:13:59;;;;;;;1.23;0.85;;;;;;;5.93;100.00;99765.84;5013077;28;20029;-53
2022/12/22 09:16:27;;;;;;;1.15;1.00;;;;;;;6.00;100.00;99772.06;5010029;28;20476;-55
2022/12/22 09:18:53;;;;;;;1.35;0.50;;;;;;;5.96;100.00;99755.00;5003509;28;20041;-53
2022/12/22 09:21:18;;;;;;;1.02;0.95;;;;;;;5.97;100.00;99762.72;5011656;28;20411;-58
2022/12/22 09:23:44;;;;;;;0.77;0.68;;;;;;;6.06;100.00;99768.72;5008280;28;20387;-59
2022/12/22 09:26:12;;;;;;;1.52;0.95;;;;;;;6.03;100.00;99762.00;5007413;28;20341;-58
2022/12/22 09:28:38;;;;;;;1.75;1.17;;;;;;;6.05;100.00;99762.63;5008546;28;20098;-55
2022/12/22 09:31:05;;;;;;;1.58;1.00;;;;;;;6.09;100.00;99765.72;5015764;28;20232;-57
2022/12/22 09:33:31;;;;;;;2.08;1.08;;;;;;;6.08;100.00;99761.47;5012044;28;20430;-57
2022/12/22 09:35:57;;;;;;;0.60;0.55;;;;;;;6.12;100.00;99760.13;5010096;28;20029;-57
2022/12/22 09:38:26;;;;;;;1.10;0.93;;;;;;;6.16;100.00;99760.56;5014360;28;20491;-54
2022/12/22 09:40:53;;;;;;;2.60;1.80;;;;;;;6.17;100.00;99760.41;5013558;28;20121;-57
2022/12/22 09:43:28;;;;;;;3.17;0.95;;;;;;;6.28;100.00;99764.41;5020142;28;20030;-56
2022/12/22 09:45:57;;;;;;;3.10;1.80;;;;;;;6.32;100.00;99753.34;5019723;28;20095;-58
2022/12/22 09:48:25;;;;;;;2.63;1.63;;;;;;;6.40;100.00;99754.22;5014128;28;20048;-56
2022/12/22 09:50:50;;;;;;;5.22;1.95;;;;;;;6.37;100.00;99758.03;5009442;28;20041;-57
2022/12/22 09:53:21;;;;;;;3.92;2.00;;;;;;;6.43;100.00;99743.31;5014198;28;20017;-58
2022/12/22 09:55:49;;;;;;;2.58;1.40;;;;;;;6.43;100.00;99741.53;5021205;28;20022;-57
2022/12/22 09:58:30;;;;;;;6.13;2.13;;;;;;;6.49;100.00;99743.41;5013831;28;20029;-56
2022/12/22 10:01:04;;;;;;;3.47;1.52;;;;;;;6.54;100.00;99746.31;5012557;28;20037;-57
2022/12/22 10:03:41;;;;;;;4.90;2.38;;;;;;;6.59;100.00;99737.06;5013200;28;20069;-53
2022/12/22 10:06:16;;;;;;;3.78;1.83;;;;;;;6.61;100.00;99741.16;5009932;28;20105;-56
2022/12/22 10:08:42;;;;;;;6.40;2.30;;;;;;;6.65;100.00;99739.78;5010010;28;20096;-57
2022/12/22 10:11:16;;;;;;;2.38;1.65;;;;;;;6.72;100.00;99735.41;5012946;28;20108;-59
2022/12/22 10:13:42;;;;;;;2.80;2.20;;;;;;;6.84;100.00;99738.41;5012197;28;20041;-58
2022/12/22 10:16:24;;;;;;;6.20;3.00;;;;;;;6.89;100.00;99740.47;5015335;28;20040;-58
2022/12/22 10:19:07;;;;;;;6.60;2.15;;;;;;;6.90;100.00;99742.09;5017925;28;20063;-57
2022/12/22 10:21:33;;;;;;;7.70;3.90;;;;;;;6.90;100.00;99731.56;5012990;28;20566;-56
2022/12/22 10:23:58;;;;;;;4.07;2.55;;;;;;;6.88;100.00;99728.28;5015603;28;20033;-53
2022/12/22 10:26:32;;;;;;;5.95;3.10;;;;;;;6.89;100.00;99728.13;5018616;28;20053;-58
2022/12/22 10:28:57;;;;;;;5.78;2.50;;;;;;;6.89;100.00;99729.91;5022644;28;20144;-56
2022/12/22 10:31:31;;;;;;;4.55;2.72;;;;;;;6.91;100.00;99733.19;5016610;28;20109;-56
2022/12/22 10:34:14;;;;;;;4.72;2.67;;;;;;;6.95;100.00;99734.47;5021408;28;20021;-56
2022/12/22 10:36:41;;;;;;;5.00;2.55;;;;;;;6.97;100.00;99735.09;5022438;28;20030;-58
2022/12/22 10:39:09;;;;;;;10.02;2.90;;;;;;;6.97;100.00;99733.28;5023110;28;20101;-53
2022/12/22 10:41:44;;;;;;;5.03;3.03;;;;;;;6.98;100.00;99724.34;5024061;28;20434;-53
2022/12/22 10:44:20;;;;;;;8.43;4.15;;;;;;;7.08;100.00;99726.69;5024531;28;20029;-57
2022/12/22 10:46:49;;;;;;;6.80;3.38;;;;;;;7.09;100.00;99725.69;5025558;28;20533;-57
2022/12/22 10:49:20;;;;;;;5.35;3.33;;;;;;;7.08;100.00;99721.44;5026745;28;20029;-58
2022/12/22 10:51:47;;;;;;;;;;;;;;;7.16;100.00;99718.66;5029358;28;20441;-56
2022/12/22 10:54:32;;;;;;;6.32;3.55;;;;;;;7.19;100.00;99718.28;5020740;28;20052;-55
2022/12/22 10:57:25;;;;;;;4.10;2.78;;;;;;;7.20;100.00;99708.56;5024402;28;20060;-58
2022/12/22 10:59:53;;;;;;;5.50;3.17;;;;;;;7.21;100.00;99711.00;5023211;28;20033;-55
2022/12/22 11:02:37;;;;;;;3.78;2.38;;;;;;;7.28;100.00;99705.81;5021254;28;20041;-57
2022/12/22 11:05:05;;;;;;;3.70;2.70;;;;;;;7.35;100.00;99697.94;5031500;28;20044;-54
2022/12/22 11:07:34;;;;;;;4.30;2.88;;;;;;;7.35;100.00;99692.69;5031313;28;20128;-56
2022/12/22 11:09:59;;;;;;;9.13;3.85;;;;;;;7.38;100.00;99685.22;5015511;28;20029;-55
2022/12/22 11:12:43;;;;;;;4.05;2.72;;;;;;;7.41;100.00;99673.47;5028469;28;20087;-56
2022/12/22 11:15:14;;;;;;;3.28;2.45;;;;;;;7.44;100.00;99681.00;5025587;28;20352;-57
2022/12/22 11:18:07;;;;;;;2.90;2.10;;;;;;;7.50;100.00;99688.13;5029524;28;20021;-57
2022/12/22 11:20:39;;;;;;;14.10;4.38;;;;;;;7.50;100.00;99685.50;5026790;28;20065;-55
2022/12/22 11:23:11;;;;;;;8.13;3.58;;;;;;;7.60;100.00;99683.34;5030308;28;20017;-57
2022/12/22 11:25:44;;;;;;;11.00;6.10;;;;;;;7.59;100.00;99681.75;5026227;28;20137;-54
2022/12/22 11:28:25;;;;;;;12.30;4.78;;;;;;;7.72;100.00;99680.19;5025808;28;20424;-55
2022/12/22 11:31:26;;;;;;;4.72;2.92;;;;;;;7.75;100.00;99682.47;5028388;28;20036;-57
2022/12/22 11:34:11;;;;;;;2.77;2.43;;;;;;;7.85;100.00;99680.31;5021496;28;20065;-56
2022/12/22 11:36:52;;;;;;;2.55;2.08;;;;;;;7.85;100.00;99691.66;5026527;28;20045;-58
2022/12/22 11:39:33;;;;;;;5.40;2.30;;;;;;;7.89;100.00;99686.81;5022966;28;20030;-57
2022/12/22 11:42:05;;;;;;;5.70;2.47;;;;;;;7.94;100.00;99688.88;5024010;28;20037;-56
2022/12/22 11:44:44;;;;;;;3.50;1.77;;;;;;;7.91;100.00;99684.00;5026171;28;20417;-56
2022/12/22 11:47:34;;;;;;;3.60;2.05;;;;;;;7.96;100.00;99679.75;5028828;28;20530;-58
2022/12/22 11:50:17;;;;;;;3.03;1.83;;;;;;;7.99;100.00;99682.00;5021250;28;20112;-56
2022/12/22 11:52:43;;;;;;;6.18;4.03;;;;;;;8.03;100.00;99672.69;5025417;28;20115;-57
2022/12/22 11:55:37;;;;;;;7.32;4.45;;;;;;;8.07;100.00;99654.63;5023973;28;20109;-58
2022/12/22 11:58:20;;;;;;;6.30;3.08;;;;;;;8.16;100.00;99653.47;5017787;28;20046;-57
2022/12/22 12:01:10;;;;;;;4.88;3.05;;;;;;;8.21;100.00;99653.72;5026215;28;20056;-56
2022/12/22 12:04:00;;;;;;;8.13;4.28;;;;;;;8.32;100.00;99649.69;5027233;28;20036;-57
2022/12/22 12:06:43;;;;;;;10.55;3.97;;;;;;;8.38;100.00;99653.38;5033957;28;20584;-57
2022/12/22 12:09:40;;;;;;;5.22;2.95;;;;;;;8.49;100.00;99642.25;5034873;28;20413;-59
2022/12/22 12:12:29;;;;;;;5.22;3.22;;;;;;;8.57;100.00;99631.53;5029549;28;20422;-58
2022/12/22 12:15:06;;;;;;;6.32;2.50;;;;;;;8.64;100.00;99634.19;5028143;28;20069;-55
2022/12/22 12:17:50;;;;;;;6.32;3.70;;;;;;;8.72;100.00;99631.34;5032428;28;20034;-58
2022/12/22 12:20:37;;;;;;;12.82;3.05;;;;;;;8.82;100.00;99631.78;5026419;28;20109;-57
2022/12/22 12:23:18;;;;;;;8.48;3.58;;;;;;;8.89;100.00;99624.69;5028511;28;20025;-54
2022/12/22 12:26:18;;;;;;;6.53;2.88;;;;;;;8.97;100.00;99617.59;5036197;28;20414;-56
2022/12/22 12:29:05;;;;;;;11.43;3.78;;;;;;;9.02;100.00;99620.44;5028839;28;20103;-54
2022/12/22 12:31:37;;;;;;;6.97;2.85;;;;;;;9.08;100.00;99612.50;5020278;28;20511;-58
2022/12/22 12:34:04;;;;;;;10.32;3.53;;;;;;;9.13;100.00;99617.19;5018348;28;20038;-55
2022/12/22 12:36:49;;;;;;;7.85;3.47;;;;;;;9.17;100.00;99611.31;5043026;28;20025;-55
2022/12/22 12:39:40;;;;;;;13.25;2.97;;;;;;;9.27;100.00;99608.25;5034250;28;20088;-58
2022/12/22 12:42:12;;;;;;;16.42;3.47;;;;;;;9.27;100.00;99600.31;5026887;28;20037;-56
2022/12/22 12:44:38;;;;;;;15.27;4.35;;;;;;;9.33;100.00;99603.97;5033133;28;20025;-53
2022/12/22 12:47:04;;;;;;;7.55;2.90;;;;;;;9.38;100.00;99598.88;5030149;28;20049;-58
2022/12/22 12:49:35;;;;;;;15.73;4.28;;;;;;;9.36;100.00;99599.09;5024779;28;20407;-58
2022/12/22 12:52:05;;;;;;;;;;;;;;;9.41;100.00;99600.31;5023235;28;20117;-56
2022/12/22 12:54:37;;;;;;;11.30;3.78;;;;;;;9.36;100.00;99593.78;5027112;28;19925;-58
2022/12/22 12:57:05;;;;;;;13.10;3.35;;;;;;;9.36;100.00;99590.34;5030444;28;20025;-56
2022/12/22 12:59:40;;;;;;;11.55;3.55;;;;;;;9.43;100.00;99600.94;5022451;28;20026;-56
2022/12/22 13:02:27;;;;;;;12.55;2.72;;;;;;;9.49;100.00;99600.09;5021868;28;20060;-58
2022/12/22 13:05:16;;;;;;;14.15;3.42;;;;;;;9.48;100.00;99598.47;5020355;28;20036;-58
2022/12/22 13:08:05;;;;;;;14.20;3.15;;;;;;;9.54;100.00;99592.34;5033888;28;20440;-58
2022/12/22 13:10:38;;;;;;;7.00;1.98;;;;;;;9.54;100.00;99597.66;5031230;28;20491;-55
2022/12/22 13:13:04;;;;;;;7.47;2.10;;;;;;;9.55;100.00;99591.31;5022187;28;20044;-57
2022/12/22 13:15:32;;;;;;;7.88;1.65;;;;;;;9.57;100.00;99584.00;5018236;28;20025;-59
2022/12/22 13:18:00;;;;;;;12.20;3.22;;;;;;;9.59;100.00;99585.41;5031489;28;20018;-59
2022/12/22 13:20:32;;;;;;;9.40;1.98;;;;;;;9.61;100.00;99582.59;5020196;28;20033;-59
2022/12/22 13:23:00;;;;;;;5.65;1.52;;;;;;;9.70;100.00;99588.47;5037996;28;20021;-59
2022/12/22 13:25:41;;;;;;;6.47;1.67;;;;;;;9.67;100.00;99581.75;5030410;28;20122;-58
2022/12/22 13:28:14;;;;;;;4.90;2.00;;;;;;;9.66;100.00;99577.47;5029595;28;20033;-58
2022/12/22 13:30:44;;;;;;;7.28;1.42;;;;;;;9.67;100.00;99581.75;5029803;28;20491;-55
2022/12/22 13:33:14;;;;;;;4.10;1.63;;;;;;;9.69;100.00;99584.19;5023875;28;20117;-58
2022/12/22 13:35:41;;;;;;;10.15;1.52;;;;;;;9.73;100.00;99588.88;5029246;28;20403;-56
2022/12/22 13:38:29;;;;;;;3.47;1.35;;;;;;;9.79;100.00;99584.59;5021586;28;20502;-57
2022/12/22 13:40:56;;;;;;;3.47;0.70;;;;;;;9.78;100.00;99580.28;5020428;28;20027;-58
2022/12/22 13:43:23;;;;;;;2.92;1.05;;;;;;;9.81;100.00;99588.66;5021564;28;20615;-57
2022/12/22 13:45:51;;;;;;;6.38;1.60;;;;;;;9.82;100.00;99579.66;5024737;28;20068;-60
2022/12/22 13:48:23;;;;;;;2.47;0.85;;;;;;;9.85;100.00;99575.78;5021987;28;20038;-54
2022/12/22 13:50:58;;;;;;;3.30;1.50;;;;;;;9.90;100.00;99577.81;5024151;28;20036;-55
2022/12/22 13:53:44;;;;;;;7.72;1.35;;;;;;;9.90;100.00;99577.81;5020884;28;20033;-57
2022/12/22 13:56:15;;;;;;;2.00;0.45;;;;;;;9.91;100.00;99568.84;5023755;28;20045;-56
2022/12/22 13:58:46;;;;;;;2.33;0.20;;;;;;;9.96;100.00;99569.84;5018019;28;20025;-55
2022/12/22 14:01:11;;;;;;;4.75;1.25;;;;;;;9.98;100.00;99567.00;5023386;28;20029;-54
2022/12/22 14:03:38;;;;;;;4.82;1.30;;;;;;;10.03;100.00;99568.00;5022902;28;20552;-58
2022/12/22 14:06:24;;;;;;;3.58;0.45;;;;;;;10.11;100.00;99571.44;5019792;28;20028;-56
2022/12/22 14:08:49;;;;;;;2.35;1.02;;;;;;;10.09;100.00;99573.47;5017421;28;20033;-59
2022/12/22 14:11:15;;;;;;;7.22;0.57;;;;;;;10.17;100.00;99568.78;5016541;28;20487;-56
2022/12/22 14:13:42;;;;;;;14.85;2.25;;;;;;;10.18;100.00;99559.78;5025778;28;20032;-55
2022/12/22 14:16:12;;;;;;;4.80;0.52;;;;;;;10.19;100.00;99556.09;5027747;28;20033;-58
2022/12/22 14:18:38;;;;;;;4.13;0.20;;;;;;;10.21;100.00;99550.59;5020343;28;20041;-57
2022/12/22 14:21:04;;;;;;;1.65;0.82;;;;;;;10.21;100.00;99556.72;5018134;28;20037;-58
2022/12/22 14:23:36;;;;;;;6.80;0.85;;;;;;;10.20;100.00;99547.16;5026610;28;20073;-56
2022/12/22 14:26:04;;;;;;;6.13;1.02;;;;;;;10.21;100.00;99545.31;5015921;28;20041;-58
2022/12/22 14:28:37;;;;;;;7.90;2.40;;;;;;;10.20;100.00;99547.16;5014180;28;20112;-58
2022/12/22 14:31:05;;;;;;;10.05;2.30;;;;;;;10.23;100.00;99551.22;5023672;28;20025;-55
2022/12/22 14:33:32;;;;;;;7.43;1.85;;;;;;;10.21;100.00;99551.41;5028530;28;20033;-56
2022/12/22 14:36:20;;;;;;;4.03;1.45;;;;;;;10.28;100.00;99542.66;5017652;28;20029;-55
2022/12/22 14:38:50;;;;;;;8.18;2.60;;;;;;;10.30;100.00;99541.44;5022547;28;20444;-57
2022/12/22 14:41:40;;;;;;;5.82;1.88;;;;;;;10.30;100.00;99543.25;5020456;28;20113;-58
2022/12/22 14:44:12;;;;;;;9.48;0.57;;;;;;;10.29;100.00;99549.59;5023875;28;20030;-57
2022/12/22 14:46:38;;;;;;;9.75;2.40;;;;;;;10.30;100.00;99551.19;5022472;28;20034;-57
2022/12/22 14:49:03;;;;;;;11.57;4.55;;;;;;;10.27;100.00;99552.41;5020180;28;20547;-55
2022/12/22 14:51:29;;;;;;;17.73;5.38;;;;;;;10.31;100.00;99558.13;5017567;28;20049;-58
2022/12/22 14:53:57;;;;;;;8.80;3.30;;;;;;;10.30;100.00;99556.50;5023833;28;20053;-57
2022/12/22 14:56:25;;;;;;;7.57;2.20;;;;;;;10.27;100.00;99555.06;5020469;28;20024;-57
2022/12/22 14:59:05;;;;;;;9.30;2.42;;;;;;;10.20;100.00;99549.81;5026494;28;20022;-58
2022/12/22 15:01:31;;;;;;;6.68;3.78;;;;;;;10.17;100.00;99552.88;5024877;28;20052;-55
2022/12/22 15:04:16;;;;;;;11.73;5.25;;;;;;;10.16;100.00;99553.88;5033110;28;20025;-56
2022/12/22 15:06:50;;;;;;;18.67;7.68;;;;;;;10.16;100.00;99558.38;5027860;28;20048;-55
2022/12/22 15:09:16;;;;;;;16.33;7.18;;;;;;;10.10;100.00;99554.75;5017098;28;20120;-58
2022/12/22 15:12:01;;;;;;;6.75;2.40;;;;;;;10.19;100.00;99555.28;5023024;28;20128;-56
2022/12/22 15:14:31;;;;;;;16.00;5.47;;;;;;;10.16;100.00;99559.19;5024395;28;20029;-55
2022/12/22 15:17:00;;;;;;;7.85;4.88;;;;;;;10.15;100.00;99548.81;5025672;28;20061;-55
2022/12/22 15:19:28;;;;;;;5.10;1.98;;;;;;;10.18;100.00;99553.69;5028067;28;20032;-55
2022/12/22 15:21:54;;;;;;;7.85;2.65;;;;;;;10.13;100.00;99546.38;5024611;28;20125;-58
2022/12/22 15:24:19;;;;;;;4.60;2.22;;;;;;;10.12;100.00;99549.22;5027181;28;20530;-58